sensor_id;sensor_type;location;lat;lon;timestamp;temperature;humidity
22738;DHT22;11536;50.860;4.286;2024-03-29T00:00:03;11.00;99.90
22738;DHT22;11536;50.860;4.286;2024-03-29T00:02:29;11.00;99.90
22738;DHT22;11536;50.860;4.286;2024-03-29T00:04:55;11.00;99.90
22738;DHT22;11536;50.860;4.286;2024-03-29T00:07:20;11.00;99.90
22738;DHT22;11536;50.860;4.286;2024-03-29T00:09:46;11.00;99.90
22738;DHT22;11536;50.860;4.286;2024-03-29T00:12:12;11.00;99.90
22738;DHT22;11536;50.860;4.286;2024-03-29T00:14:37;11.00;99.90
22738;DHT22;11536;50.860;4.286;2024-03-29T00:17:05;11.00;99.90
22738;DHT22;11536;50.860;4.286;2024-03-29T00:19:30;11.00;99.90
22738;DHT22;11536;50.860;4.286;2024-03-29T00:21:56;11.00;99.90
22738;DHT22;11536;50.860;4.286;2024-03-29T00:24:21;11.00;99.90
22738;DHT22;11536;50.860;4.286;2024-03-29T00:26:47;11.00;99.90
22738;DHT22;11536;50.860;4.286;2024-03-29T00:29:13;11.10;99.90
22738;DHT22;11536;50.860;4.286;2024-03-29T00:31:38;11.10;99.90
22738;DHT22;11536;50.860;4.286;2024-03-29T00:34:04;11.10;99.90
22738;DHT22;11536;50.860;4.286;2024-03-29T00:36:30;11.10;99.90
22738;DHT22;11536;50.860;4.286;2024-03-29T00:38:55;11.10;99.90
22738;DHT22;11536;50.860;4.286;2024-03-29T00:41:21;11.10;99.90
22738;DHT22;11536;50.860;4.286;2024-03-29T00:43:46;11.10;99.90
22738;DHT22;11536;50.860;4.286;2024-03-29T00:46:14;11.20;99.90
22738;DHT22;11536;50.860;4.286;2024-03-29T00:48:39;11.20;99.90
22738;DHT22;11536;50.860;4.286;2024-03-29T00:51:05;11.20;99.90
22738;DHT22;11536;50.860;4.286;2024-03-29T00:53:30;11.20;99.90
22738;DHT22;11536;50.860;4.286;2024-03-29T00:55:56;11.20;99.90
22738;DHT22;11536;50.860;4.286;2024-03-29T00:58:22;11.30;99.90
22738;DHT22;11536;50.860;4.286;2024-03-29T01:00:47;11.30;99.90
22738;DHT22;11536;50.860;4.286;2024-03-29T01:03:13;11.30;99.90
22738;DHT22;11536;50.860;4.286;2024-03-29T01:05:39;11.40;99.90
22738;DHT22;11536;50.860;4.286;2024-03-29T01:08:05;11.40;99.90
22738;DHT22;11536;50.860;4.286;2024-03-29T01:10:30;11.40;99.90
22738;DHT22;11536;50.860;4.286;2024-03-29T01:12:56;11.40;99.90
22738;DHT22;11536;50.860;4.286;2024-03-29T01:15:22;11.40;99.90
22738;DHT22;11536;50.860;4.286;2024-03-29T01:17:47;11.40;99.90
22738;DHT22;11536;50.860;4.286;2024-03-29T01:20:13;11.40;99.90
22738;DHT22;11536;50.860;4.286;2024-03-29T01:22:38;11.50;99.90
22738;DHT22;11536;50.860;4.286;2024-03-29T01:25:04;11.40;99.90
22738;DHT22;11536;50.860;4.286;2024-03-29T01:27:33;11.50;99.90
22738;DHT22;11536;50.860;4.286;2024-03-29T01:29:59;11.40;99.90
22738;DHT22;11536;50.860;4.286;2024-03-29T01:32:25;11.50;99.90
22738;DHT22;11536;50.860;4.286;2024-03-29T01:34:50;11.40;99.90
22738;DHT22;11536;50.860;4.286;2024-03-29T01:37:16;11.40;99.90
22738;DHT22;11536;50.860;4.286;2024-03-29T01:39:41;11.40;99.90
22738;DHT22;11536;50.860;4.286;2024-03-29T01:42:07;11.40;99.90
22738;DHT22;11536;50.860;4.286;2024-03-29T01:44:33;11.40;99.90
22738;DHT22;11536;50.860;4.286;2024-03-29T01:46:58;11.30;99.90
22738;DHT22;11536;50.860;4.286;2024-03-29T01:49:24;11.30;99.90
22738;DHT22;11536;50.860;4.286;2024-03-29T01:51:51;11.30;99.90
22738;DHT22;11536;50.860;4.286;2024-03-29T01:54:17;11.20;99.90
22738;DHT22;11536;50.860;4.286;2024-03-29T01:56:43;11.20;99.90
22738;DHT22;11536;50.860;4.286;2024-03-29T01:59:13;11.20;99.90
22738;DHT22;11536;50.860;4.286;2024-03-29T02:01:42;11.20;99.90
22738;DHT22;11536;50.860;4.286;2024-03-29T02:04:09;11.10;99.90
22738;DHT22;11536;50.860;4.286;2024-03-29T02:06:35;11.10;99.90
22738;DHT22;11536;50.860;4.286;2024-03-29T02:09:02;11.10;99.90
22738;DHT22;11536;50.860;4.286;2024-03-29T02:11:29;11.00;99.90
22738;DHT22;11536;50.860;4.286;2024-03-29T02:13:54;10.90;99.90
22738;DHT22;11536;50.860;4.286;2024-03-29T02:16:21;10.90;99.90
22738;DHT22;11536;50.860;4.286;2024-03-29T02:18:46;10.80;99.90
22738;DHT22;11536;50.860;4.286;2024-03-29T02:21:12;10.80;99.90
22738;DHT22;11536;50.860;4.286;2024-03-29T02:23:43;10.70;99.90
22738;DHT22;11536;50.860;4.286;2024-03-29T02:26:08;10.70;99.90
22738;DHT22;11536;50.860;4.286;2024-03-29T02:28:34;10.60;99.90
22738;DHT22;11536;50.860;4.286;2024-03-29T02:31:00;10.60;99.90
22738;DHT22;11536;50.860;4.286;2024-03-29T02:33:26;10.50;99.90
22738;DHT22;11536;50.860;4.286;2024-03-29T02:35:51;10.50;99.90
22738;DHT22;11536;50.860;4.286;2024-03-29T02:38:17;10.50;99.90
22738;DHT22;11536;50.860;4.286;2024-03-29T02:40:42;10.50;99.90
22738;DHT22;11536;50.860;4.286;2024-03-29T02:43:08;10.40;99.90
22738;DHT22;11536;50.860;4.286;2024-03-29T02:45:34;10.30;99.90
22738;DHT22;11536;50.860;4.286;2024-03-29T02:48:00;10.30;99.90
22738;DHT22;11536;50.860;4.286;2024-03-29T02:50:25;10.30;99.90
22738;DHT22;11536;50.860;4.286;2024-03-29T02:52:51;10.20;99.90
22738;DHT22;11536;50.860;4.286;2024-03-29T02:55:17;10.20;99.90
22738;DHT22;11536;50.860;4.286;2024-03-29T02:57:42;10.20;99.90
22738;DHT22;11536;50.860;4.286;2024-03-29T03:00:08;10.20;99.90
22738;DHT22;11536;50.860;4.286;2024-03-29T03:02:38;10.20;99.90
22738;DHT22;11536;50.860;4.286;2024-03-29T03:05:05;10.20;99.90
22738;DHT22;11536;50.860;4.286;2024-03-29T03:07:30;10.20;99.90
22738;DHT22;11536;50.860;4.286;2024-03-29T03:10:15;10.10;99.90
22738;DHT22;11536;50.860;4.286;2024-03-29T03:12:59;10.10;99.90
22738;DHT22;11536;50.860;4.286;2024-03-29T03:15:24;10.10;99.90
22738;DHT22;11536;50.860;4.286;2024-03-29T03:17:50;10.10;99.90
22738;DHT22;11536;50.860;4.286;2024-03-29T03:20:15;10.10;99.90
22738;DHT22;11536;50.860;4.286;2024-03-29T03:22:42;10.00;99.90
22738;DHT22;11536;50.860;4.286;2024-03-29T03:25:08;10.00;99.90
22738;DHT22;11536;50.860;4.286;2024-03-29T03:27:33;10.00;99.90
22738;DHT22;11536;50.860;4.286;2024-03-29T03:29:59;10.00;99.90
22738;DHT22;11536;50.860;4.286;2024-03-29T03:32:25;10.00;99.90
22738;DHT22;11536;50.860;4.286;2024-03-29T03:34:50;9.90;99.90
22738;DHT22;11536;50.860;4.286;2024-03-29T03:37:16;9.90;99.90
22738;DHT22;11536;50.860;4.286;2024-03-29T03:39:41;9.90;99.90
22738;DHT22;11536;50.860;4.286;2024-03-29T03:42:07;9.90;99.90
22738;DHT22;11536;50.860;4.286;2024-03-29T03:44:33;9.90;99.90
22738;DHT22;11536;50.860;4.286;2024-03-29T03:46:58;9.90;99.90
22738;DHT22;11536;50.860;4.286;2024-03-29T03:49:24;9.80;99.90
22738;DHT22;11536;50.860;4.286;2024-03-29T03:51:49;9.80;99.90
22738;DHT22;11536;50.860;4.286;2024-03-29T03:54:15;9.80;99.90
22738;DHT22;11536;50.860;4.286;2024-03-29T03:56:41;9.80;99.90
22738;DHT22;11536;50.860;4.286;2024-03-29T03:59:06;9.80;99.90
22738;DHT22;11536;50.860;4.286;2024-03-29T04:01:33;9.80;99.90
22738;DHT22;11536;50.860;4.286;2024-03-29T04:03:59;9.90;99.90
22738;DHT22;11536;50.860;4.286;2024-03-29T04:06:25;9.80;99.90
22738;DHT22;11536;50.860;4.286;2024-03-29T04:08:50;9.80;99.90
22738;DHT22;11536;50.860;4.286;2024-03-29T04:11:16;9.80;99.90
22738;DHT22;11536;50.860;4.286;2024-03-29T04:13:44;9.80;99.90
22738;DHT22;11536;50.860;4.286;2024-03-29T04:16:10;9.80;99.90
22738;DHT22;11536;50.860;4.286;2024-03-29T04:18:36;9.80;99.90
22738;DHT22;11536;50.860;4.286;2024-03-29T04:21:02;9.80;99.90
22738;DHT22;11536;50.860;4.286;2024-03-29T04:23:28;9.80;99.90
22738;DHT22;11536;50.860;4.286;2024-03-29T04:25:55;9.80;99.90
22738;DHT22;11536;50.860;4.286;2024-03-29T04:28:21;9.80;99.90
22738;DHT22;11536;50.860;4.286;2024-03-29T04:30:57;9.70;99.90
22738;DHT22;11536;50.860;4.286;2024-03-29T04:33:23;9.70;99.90
22738;DHT22;11536;50.860;4.286;2024-03-29T04:36:02;9.70;99.90
22738;DHT22;11536;50.860;4.286;2024-03-29T04:38:29;9.70;99.90
22738;DHT22;11536;50.860;4.286;2024-03-29T04:40:56;9.70;99.90
22738;DHT22;11536;50.860;4.286;2024-03-29T04:43:23;9.70;99.90
22738;DHT22;11536;50.860;4.286;2024-03-29T04:45:49;9.70;99.90
22738;DHT22;11536;50.860;4.286;2024-03-29T04:48:14;9.70;99.90
22738;DHT22;11536;50.860;4.286;2024-03-29T04:50:40;9.60;99.90
22738;DHT22;11536;50.860;4.286;2024-03-29T04:53:09;9.60;99.90
22738;DHT22;11536;50.860;4.286;2024-03-29T04:55:35;9.60;99.90
22738;DHT22;11536;50.860;4.286;2024-03-29T04:58:01;9.60;99.90
22738;DHT22;11536;50.860;4.286;2024-03-29T05:00:27;9.60;99.90
22738;DHT22;11536;50.860;4.286;2024-03-29T05:02:52;9.60;99.90
22738;DHT22;11536;50.860;4.286;2024-03-29T05:05:18;9.60;99.90
22738;DHT22;11536;50.860;4.286;2024-03-29T05:07:44;9.60;99.90
22738;DHT22;11536;50.860;4.286;2024-03-29T05:10:09;9.60;99.90
22738;DHT22;11536;50.860;4.286;2024-03-29T05:12:36;9.60;99.90
22738;DHT22;11536;50.860;4.286;2024-03-29T05:15:02;9.60;99.90
22738;DHT22;11536;50.860;4.286;2024-03-29T05:17:27;9.60;99.90
22738;DHT22;11536;50.860;4.286;2024-03-29T05:19:54;9.50;99.90
22738;DHT22;11536;50.860;4.286;2024-03-29T05:22:19;9.60;99.90
22738;DHT22;11536;50.860;4.286;2024-03-29T05:24:45;9.60;99.90
22738;DHT22;11536;50.860;4.286;2024-03-29T05:27:11;9.60;99.90
22738;DHT22;11536;50.860;4.286;2024-03-29T05:29:37;9.60;99.90
22738;DHT22;11536;50.860;4.286;2024-03-29T05:32:04;9.60;99.90
22738;DHT22;11536;50.860;4.286;2024-03-29T05:34:30;9.50;99.90
22738;DHT22;11536;50.860;4.286;2024-03-29T05:36:55;9.60;99.90
22738;DHT22;11536;50.860;4.286;2024-03-29T05:39:21;9.60;99.90
22738;DHT22;11536;50.860;4.286;2024-03-29T05:41:47;9.60;99.90
22738;DHT22;11536;50.860;4.286;2024-03-29T05:44:13;9.60;99.90
22738;DHT22;11536;50.860;4.286;2024-03-29T05:46:38;9.60;99.90
22738;DHT22;11536;50.860;4.286;2024-03-29T05:49:06;9.50;99.90
22738;DHT22;11536;50.860;4.286;2024-03-29T05:51:32;9.50;99.90
22738;DHT22;11536;50.860;4.286;2024-03-29T05:53:59;9.50;99.90
22738;DHT22;11536;50.860;4.286;2024-03-29T05:56:25;9.50;99.90
22738;DHT22;11536;50.860;4.286;2024-03-29T05:58:50;9.50;99.90
22738;DHT22;11536;50.860;4.286;2024-03-29T06:01:16;9.50;99.90
22738;DHT22;11536;50.860;4.286;2024-03-29T06:03:42;9.50;99.90
22738;DHT22;11536;50.860;4.286;2024-03-29T06:06:08;9.50;99.90
22738;DHT22;11536;50.860;4.286;2024-03-29T06:08:37;9.50;99.90
22738;DHT22;11536;50.860;4.286;2024-03-29T06:11:03;9.50;99.90
22738;DHT22;11536;50.860;4.286;2024-03-29T06:13:28;9.50;99.90
22738;DHT22;11536;50.860;4.286;2024-03-29T06:16:13;9.60;99.90
22738;DHT22;11536;50.860;4.286;2024-03-29T06:18:57;9.60;99.90
22738;DHT22;11536;50.860;4.286;2024-03-29T06:21:22;9.60;99.90
22738;DHT22;11536;50.860;4.286;2024-03-29T06:23:48;9.60;99.90
22738;DHT22;11536;50.860;4.286;2024-03-29T06:26:14;9.60;99.90
22738;DHT22;11536;50.860;4.286;2024-03-29T06:28:39;9.60;99.90
22738;DHT22;11536;50.860;4.286;2024-03-29T06:31:05;9.60;99.90
22738;DHT22;11536;50.860;4.286;2024-03-29T06:33:31;9.60;99.90
22738;DHT22;11536;50.860;4.286;2024-03-29T06:35:56;9.60;99.90
22738;DHT22;11536;50.860;4.286;2024-03-29T06:38:22;9.60;99.90
22738;DHT22;11536;50.860;4.286;2024-03-29T06:40:48;9.70;99.90
22738;DHT22;11536;50.860;4.286;2024-03-29T06:43:14;9.70;99.90
22738;DHT22;11536;50.860;4.286;2024-03-29T06:45:40;9.70;99.90
22738;DHT22;11536;50.860;4.286;2024-03-29T06:48:08;9.70;99.90
22738;DHT22;11536;50.860;4.286;2024-03-29T06:50:34;9.80;99.90
22738;DHT22;11536;50.860;4.286;2024-03-29T06:53:00;9.70;99.90
22738;DHT22;11536;50.860;4.286;2024-03-29T06:55:26;9.80;99.90
22738;DHT22;11536;50.860;4.286;2024-03-29T06:57:51;9.80;99.90
22738;DHT22;11536;50.860;4.286;2024-03-29T07:00:17;9.80;99.90
22738;DHT22;11536;50.860;4.286;2024-03-29T07:02:43;9.80;99.90
22738;DHT22;11536;50.860;4.286;2024-03-29T07:05:09;9.80;99.90
22738;DHT22;11536;50.860;4.286;2024-03-29T07:07:37;9.80;99.90
22738;DHT22;11536;50.860;4.286;2024-03-29T07:10:03;9.80;99.90
22738;DHT22;11536;50.860;4.286;2024-03-29T07:12:29;9.90;99.90
22738;DHT22;11536;50.860;4.286;2024-03-29T07:14:54;9.90;99.90
22738;DHT22;11536;50.860;4.286;2024-03-29T07:17:20;9.90;99.90
22738;DHT22;11536;50.860;4.286;2024-03-29T07:19:46;9.90;99.90
22738;DHT22;11536;50.860;4.286;2024-03-29T07:22:12;9.90;99.90
22738;DHT22;11536;50.860;4.286;2024-03-29T07:24:37;9.90;99.90
22738;DHT22;11536;50.860;4.286;2024-03-29T07:27:03;9.90;99.90
22738;DHT22;11536;50.860;4.286;2024-03-29T07:29:29;10.00;99.90
22738;DHT22;11536;50.860;4.286;2024-03-29T07:31:54;10.00;99.90
22738;DHT22;11536;50.860;4.286;2024-03-29T07:34:20;10.00;99.90
22738;DHT22;11536;50.860;4.286;2024-03-29T07:36:46;10.00;99.90
22738;DHT22;11536;50.860;4.286;2024-03-29T07:39:11;10.10;99.90
22738;DHT22;11536;50.860;4.286;2024-03-29T07:41:37;10.10;99.90
22738;DHT22;11536;50.860;4.286;2024-03-29T07:44:03;10.10;99.90
22738;DHT22;11536;50.860;4.286;2024-03-29T07:46:38;10.20;99.90
22738;DHT22;11536;50.860;4.286;2024-03-29T07:49:05;10.20;99.90
22738;DHT22;11536;50.860;4.286;2024-03-29T07:51:31;10.20;99.90
22738;DHT22;11536;50.860;4.286;2024-03-29T07:53:57;10.30;99.90
22738;DHT22;11536;50.860;4.286;2024-03-29T07:56:22;10.30;99.90
22738;DHT22;11536;50.860;4.286;2024-03-29T07:58:53;10.30;99.90
22738;DHT22;11536;50.860;4.286;2024-03-29T08:01:23;10.40;99.90
22738;DHT22;11536;50.860;4.286;2024-03-29T08:03:52;10.50;99.90
22738;DHT22;11536;50.860;4.286;2024-03-29T08:06:22;10.50;99.90
22738;DHT22;11536;50.860;4.286;2024-03-29T08:08:49;10.60;99.90
22738;DHT22;11536;50.860;4.286;2024-03-29T08:11:16;10.60;99.90
22738;DHT22;11536;50.860;4.286;2024-03-29T08:13:42;10.60;99.90
22738;DHT22;11536;50.860;4.286;2024-03-29T08:16:07;10.70;99.90
22738;DHT22;11536;50.860;4.286;2024-03-29T08:18:33;10.70;99.90
22738;DHT22;11536;50.860;4.286;2024-03-29T08:20:59;10.80;99.90
22738;DHT22;11536;50.860;4.286;2024-03-29T08:23:25;10.80;99.90
22738;DHT22;11536;50.860;4.286;2024-03-29T08:25:51;10.90;99.90
22738;DHT22;11536;50.860;4.286;2024-03-29T08:28:18;10.90;99.90
22738;DHT22;11536;50.860;4.286;2024-03-29T08:30:44;11.00;99.90
22738;DHT22;11536;50.860;4.286;2024-03-29T08:33:10;11.00;99.90
22738;DHT22;11536;50.860;4.286;2024-03-29T08:35:35;11.10;99.90
22738;DHT22;11536;50.860;4.286;2024-03-29T08:38:01;11.10;99.90
22738;DHT22;11536;50.860;4.286;2024-03-29T08:40:28;11.20;99.90
22738;DHT22;11536;50.860;4.286;2024-03-29T08:42:55;11.20;99.90
22738;DHT22;11536;50.860;4.286;2024-03-29T08:45:21;11.30;99.90
22738;DHT22;11536;50.860;4.286;2024-03-29T08:47:47;11.30;99.90
22738;DHT22;11536;50.860;4.286;2024-03-29T08:50:13;11.40;99.90
22738;DHT22;11536;50.860;4.286;2024-03-29T08:52:39;11.40;99.90
22738;DHT22;11536;50.860;4.286;2024-03-29T08:55:06;11.50;99.90
22738;DHT22;11536;50.860;4.286;2024-03-29T08:57:32;11.50;99.90
22738;DHT22;11536;50.860;4.286;2024-03-29T08:59:58;11.50;99.90
22738;DHT22;11536;50.860;4.286;2024-03-29T09:02:23;11.60;99.90
22738;DHT22;11536;50.860;4.286;2024-03-29T09:04:49;11.60;99.90
22738;DHT22;11536;50.860;4.286;2024-03-29T09:07:15;11.60;99.90
22738;DHT22;11536;50.860;4.286;2024-03-29T09:09:40;11.70;99.90
22738;DHT22;11536;50.860;4.286;2024-03-29T09:12:10;11.70;99.90
22738;DHT22;11536;50.860;4.286;2024-03-29T09:14:35;11.80;99.90
22738;DHT22;11536;50.860;4.286;2024-03-29T09:17:01;11.90;99.90
22738;DHT22;11536;50.860;4.286;2024-03-29T09:19:29;11.90;99.90
22738;DHT22;11536;50.860;4.286;2024-03-29T09:21:56;12.00;99.90
22738;DHT22;11536;50.860;4.286;2024-03-29T09:24:22;12.00;99.90
22738;DHT22;11536;50.860;4.286;2024-03-29T09:26:50;12.00;99.90
22738;DHT22;11536;50.860;4.286;2024-03-29T09:29:16;12.00;99.90
22738;DHT22;11536;50.860;4.286;2024-03-29T09:31:43;12.10;99.90
22738;DHT22;11536;50.860;4.286;2024-03-29T09:34:09;12.10;99.90
22738;DHT22;11536;50.860;4.286;2024-03-29T09:36:34;12.10;99.90
22738;DHT22;11536;50.860;4.286;2024-03-29T09:39:00;12.20;99.90
22738;DHT22;11536;50.860;4.286;2024-03-29T09:41:26;12.20;99.90
22738;DHT22;11536;50.860;4.286;2024-03-29T09:43:57;12.20;99.90
22738;DHT22;11536;50.860;4.286;2024-03-29T09:46:25;12.30;99.90
22738;DHT22;11536;50.860;4.286;2024-03-29T09:48:54;12.30;99.90
22738;DHT22;11536;50.860;4.286;2024-03-29T09:51:21;12.40;99.90
22738;DHT22;11536;50.860;4.286;2024-03-29T09:53:47;12.40;99.90
22738;DHT22;11536;50.860;4.286;2024-03-29T09:56:14;12.40;99.90
22738;DHT22;11536;50.860;4.286;2024-03-29T09:58:39;12.40;99.90
22738;DHT22;11536;50.860;4.286;2024-03-29T10:01:07;12.50;99.90
22738;DHT22;11536;50.860;4.286;2024-03-29T10:03:38;12.50;99.90
22738;DHT22;11536;50.860;4.286;2024-03-29T10:06:05;12.60;99.90
22738;DHT22;11536;50.860;4.286;2024-03-29T10:08:34;12.60;99.90
22738;DHT22;11536;50.860;4.286;2024-03-29T10:11:00;12.60;99.90
22738;DHT22;11536;50.860;4.286;2024-03-29T10:13:26;12.70;99.90
22738;DHT22;11536;50.860;4.286;2024-03-29T10:15:55;12.80;99.90
22738;DHT22;11536;50.860;4.286;2024-03-29T10:18:27;12.90;99.90
22738;DHT22;11536;50.860;4.286;2024-03-29T10:21:04;13.00;99.90
22738;DHT22;11536;50.860;4.286;2024-03-29T10:23:30;13.10;99.90
22738;DHT22;11536;50.860;4.286;2024-03-29T10:25:56;13.10;99.90
22738;DHT22;11536;50.860;4.286;2024-03-29T10:28:23;13.10;99.90
22738;DHT22;11536;50.860;4.286;2024-03-29T10:30:49;13.10;99.90
22738;DHT22;11536;50.860;4.286;2024-03-29T10:33:16;13.20;99.90
22738;DHT22;11536;50.860;4.286;2024-03-29T10:35:44;13.20;99.90
22738;DHT22;11536;50.860;4.286;2024-03-29T10:38:11;13.30;99.90
22738;DHT22;11536;50.860;4.286;2024-03-29T10:40:38;13.30;99.90
22738;DHT22;11536;50.860;4.286;2024-03-29T10:43:11;13.30;99.90
22738;DHT22;11536;50.860;4.286;2024-03-29T10:45:44;13.30;99.90
22738;DHT22;11536;50.860;4.286;2024-03-29T10:48:10;13.30;99.90
22738;DHT22;11536;50.860;4.286;2024-03-29T10:50:37;13.30;99.90
22738;DHT22;11536;50.860;4.286;2024-03-29T10:53:05;13.30;99.90
22738;DHT22;11536;50.860;4.286;2024-03-29T10:55:33;13.30;99.90
22738;DHT22;11536;50.860;4.286;2024-03-29T10:58:00;13.50;99.90
22738;DHT22;11536;50.860;4.286;2024-03-29T11:00:28;13.50;99.90
22738;DHT22;11536;50.860;4.286;2024-03-29T11:03:20;13.70;99.90
22738;DHT22;11536;50.860;4.286;2024-03-29T11:05:49;13.80;99.90
22738;DHT22;11536;50.860;4.286;2024-03-29T11:08:22;13.90;99.90
22738;DHT22;11536;50.860;4.286;2024-03-29T11:10:51;14.00;99.90
22738;DHT22;11536;50.860;4.286;2024-03-29T11:16:19;14.10;99.90
22738;DHT22;11536;50.860;4.286;2024-03-29T11:18:46;14.10;99.90
22738;DHT22;11536;50.860;4.286;2024-03-29T11:21:16;14.20;99.90
22738;DHT22;11536;50.860;4.286;2024-03-29T11:23:52;14.20;99.90
22738;DHT22;11536;50.860;4.286;2024-03-29T11:26:19;14.30;99.90
22738;DHT22;11536;50.860;4.286;2024-03-29T11:28:52;14.30;99.90
22738;DHT22;11536;50.860;4.286;2024-03-29T11:31:25;14.40;99.90
22738;DHT22;11536;50.860;4.286;2024-03-29T11:33:51;14.40;99.90
22738;DHT22;11536;50.860;4.286;2024-03-29T11:38:45;14.50;99.90
22738;DHT22;11536;50.860;4.286;2024-03-29T11:43:38;14.60;99.90
22738;DHT22;11536;50.860;4.286;2024-03-29T11:46:07;14.60;99.90
22738;DHT22;11536;50.860;4.286;2024-03-29T11:48:34;14.70;99.90
22738;DHT22;11536;50.860;4.286;2024-03-29T11:51:02;14.70;99.90
22738;DHT22;11536;50.860;4.286;2024-03-29T11:53:29;14.80;99.90
22738;DHT22;11536;50.860;4.286;2024-03-29T11:55:57;14.70;99.90
22738;DHT22;11536;50.860;4.286;2024-03-29T11:58:23;14.80;99.90
22738;DHT22;11536;50.860;4.286;2024-03-29T12:00:53;14.80;99.90
22738;DHT22;11536;50.860;4.286;2024-03-29T12:03:20;14.90;99.90
22738;DHT22;11536;50.860;4.286;2024-03-29T12:05:48;14.90;99.90
22738;DHT22;11536;50.860;4.286;2024-03-29T12:08:14;15.00;99.90
22738;DHT22;11536;50.860;4.286;2024-03-29T12:10:40;15.00;99.90
22738;DHT22;11536;50.860;4.286;2024-03-29T12:13:07;15.00;99.90
22738;DHT22;11536;50.860;4.286;2024-03-29T12:15:33;15.10;99.90
22738;DHT22;11536;50.860;4.286;2024-03-29T12:18:00;15.20;99.90
22738;DHT22;11536;50.860;4.286;2024-03-29T12:20:30;15.40;99.90
22738;DHT22;11536;50.860;4.286;2024-03-29T12:22:59;15.50;99.90
22738;DHT22;11536;50.860;4.286;2024-03-29T12:25:25;15.60;99.90
22738;DHT22;11536;50.860;4.286;2024-03-29T12:27:53;15.60;99.90
22738;DHT22;11536;50.860;4.286;2024-03-29T12:30:18;15.70;99.90
22738;DHT22;11536;50.860;4.286;2024-03-29T12:32:44;15.80;99.90
22738;DHT22;11536;50.860;4.286;2024-03-29T12:35:16;15.90;99.90
22738;DHT22;11536;50.860;4.286;2024-03-29T12:37:49;15.90;99.90
22738;DHT22;11536;50.860;4.286;2024-03-29T12:40:19;15.90;99.90
22738;DHT22;11536;50.860;4.286;2024-03-29T12:42:56;16.00;99.90
22738;DHT22;11536;50.860;4.286;2024-03-29T12:45:24;16.00;99.90
22738;DHT22;11536;50.860;4.286;2024-03-29T12:47:51;16.00;99.90
22738;DHT22;11536;50.860;4.286;2024-03-29T12:50:29;16.10;99.90
22738;DHT22;11536;50.860;4.286;2024-03-29T12:53:00;16.20;99.90
22738;DHT22;11536;50.860;4.286;2024-03-29T12:55:27;16.30;99.90
22738;DHT22;11536;50.860;4.286;2024-03-29T12:57:57;16.30;99.90
22738;DHT22;11536;50.860;4.286;2024-03-29T13:00:26;16.50;99.90
22738;DHT22;11536;50.860;4.286;2024-03-29T13:02:51;16.60;99.90
22738;DHT22;11536;50.860;4.286;2024-03-29T13:05:17;16.70;99.90
22738;DHT22;11536;50.860;4.286;2024-03-29T13:07:43;16.80;99.90
22738;DHT22;11536;50.860;4.286;2024-03-29T13:10:09;16.70;99.90
22738;DHT22;11536;50.860;4.286;2024-03-29T13:12:40;16.70;99.90
22738;DHT22;11536;50.860;4.286;2024-03-29T13:15:19;16.80;99.90
22738;DHT22;11536;50.860;4.286;2024-03-29T13:17:47;16.80;99.90
22738;DHT22;11536;50.860;4.286;2024-03-29T13:20:15;16.80;99.90
22738;DHT22;11536;50.860;4.286;2024-03-29T13:22:45;16.80;99.90
22738;DHT22;11536;50.860;4.286;2024-03-29T13:25:18;16.80;99.90
22738;DHT22;11536;50.860;4.286;2024-03-29T13:27:46;16.80;99.90
22738;DHT22;11536;50.860;4.286;2024-03-29T13:30:13;16.70;99.90
22738;DHT22;11536;50.860;4.286;2024-03-29T13:32:40;16.80;99.90
22738;DHT22;11536;50.860;4.286;2024-03-29T13:35:07;17.00;99.90
22738;DHT22;11536;50.860;4.286;2024-03-29T13:37:38;17.20;99.90
22738;DHT22;11536;50.860;4.286;2024-03-29T13:40:05;17.40;99.90
22738;DHT22;11536;50.860;4.286;2024-03-29T13:42:31;17.40;99.90
22738;DHT22;11536;50.860;4.286;2024-03-29T13:44:57;17.40;99.90
22738;DHT22;11536;50.860;4.286;2024-03-29T13:47:23;17.50;99.90
22738;DHT22;11536;50.860;4.286;2024-03-29T13:49:48;17.50;99.90
22738;DHT22;11536;50.860;4.286;2024-03-29T13:52:18;17.50;99.90
22738;DHT22;11536;50.860;4.286;2024-03-29T13:54:44;17.50;99.90
22738;DHT22;11536;50.860;4.286;2024-03-29T13:57:15;17.50;99.90
22738;DHT22;11536;50.860;4.286;2024-03-29T13:59:43;17.50;99.90
22738;DHT22;11536;50.860;4.286;2024-03-29T14:02:15;17.40;99.90
22738;DHT22;11536;50.860;4.286;2024-03-29T14:04:41;17.40;99.90
22738;DHT22;11536;50.860;4.286;2024-03-29T14:07:08;17.40;99.90
22738;DHT22;11536;50.860;4.286;2024-03-29T14:09:36;17.40;99.90
22738;DHT22;11536;50.860;4.286;2024-03-29T14:12:02;17.40;99.90
22738;DHT22;11536;50.860;4.286;2024-03-29T14:14:29;17.40;99.90
22738;DHT22;11536;50.860;4.286;2024-03-29T14:16:55;17.50;99.90
22738;DHT22;11536;50.860;4.286;2024-03-29T14:19:20;17.40;99.90
22738;DHT22;11536;50.860;4.286;2024-03-29T14:21:46;17.40;99.90
22738;DHT22;11536;50.860;4.286;2024-03-29T14:24:12;17.40;99.90
22738;DHT22;11536;50.860;4.286;2024-03-29T14:26:38;17.50;99.90
22738;DHT22;11536;50.860;4.286;2024-03-29T14:29:04;17.50;99.90
22738;DHT22;11536;50.860;4.286;2024-03-29T14:31:32;17.60;99.90
22738;DHT22;11536;50.860;4.286;2024-03-29T14:33:58;17.60;99.90
22738;DHT22;11536;50.860;4.286;2024-03-29T14:36:23;17.80;99.90
22738;DHT22;11536;50.860;4.286;2024-03-29T14:38:49;17.80;99.90
22738;DHT22;11536;50.860;4.286;2024-03-29T14:41:15;17.90;99.90
22738;DHT22;11536;50.860;4.286;2024-03-29T14:43:41;18.00;99.90
22738;DHT22;11536;50.860;4.286;2024-03-29T14:46:09;17.90;99.90
22738;DHT22;11536;50.860;4.286;2024-03-29T14:48:35;17.90;99.90
22738;DHT22;11536;50.860;4.286;2024-03-29T14:51:01;17.90;99.90
22738;DHT22;11536;50.860;4.286;2024-03-29T14:53:26;17.90;99.90
22738;DHT22;11536;50.860;4.286;2024-03-29T14:55:52;17.90;99.90
22738;DHT22;11536;50.860;4.286;2024-03-29T14:58:18;17.90;99.90
22738;DHT22;11536;50.860;4.286;2024-03-29T15:00:43;17.80;99.90
22738;DHT22;11536;50.860;4.286;2024-03-29T15:03:18;17.80;99.90
22738;DHT22;11536;50.860;4.286;2024-03-29T15:05:43;17.70;99.90
22738;DHT22;11536;50.860;4.286;2024-03-29T15:08:09;17.80;99.90
22738;DHT22;11536;50.860;4.286;2024-03-29T15:11:04;17.70;99.90
22738;DHT22;11536;50.860;4.286;2024-03-29T15:13:32;17.70;99.90
22738;DHT22;11536;50.860;4.286;2024-03-29T15:15:59;17.70;99.90
22738;DHT22;11536;50.860;4.286;2024-03-29T15:18:25;17.60;99.90
22738;DHT22;11536;50.860;4.286;2024-03-29T15:21:01;17.50;99.90
22738;DHT22;11536;50.860;4.286;2024-03-29T15:23:28;17.50;99.90
22738;DHT22;11536;50.860;4.286;2024-03-29T15:25:58;17.40;99.90
22738;DHT22;11536;50.860;4.286;2024-03-29T15:28:25;17.30;99.90
22738;DHT22;11536;50.860;4.286;2024-03-29T15:31:11;17.10;99.90
22738;DHT22;11536;50.860;4.286;2024-03-29T15:33:38;17.10;99.90
22738;DHT22;11536;50.860;4.286;2024-03-29T15:36:04;17.10;99.90
22738;DHT22;11536;50.860;4.286;2024-03-29T15:38:30;17.10;99.90
22738;DHT22;11536;50.860;4.286;2024-03-29T15:40:57;17.10;99.90